sensor_id;sensor_type;location;lat;lon;timestamp;P1;durP1;ratioP1;P2;durP2;ratioP2
50549;SDS011;36505;52.512;13.460;2023-08-20T00:01:59;17.58;;;12.02;;
50549;SDS011;36505;52.512;13.460;2023-08-20T00:04:27;17.55;;;12.90;;
50549;SDS011;36505;52.512;13.460;2023-08-20T00:06:53;17.10;;;13.48;;
50549;SDS011;36505;52.512;13.460;2023-08-20T00:09:18;16.85;;;12.75;;
50549;SDS011;36505;52.512;13.460;2023-08-20T00:11:44;20.15;;;13.45;;
50549;SDS011;36505;52.512;13.460;2023-08-20T00:14:16;17.42;;;12.82;;
50549;SDS011;36505;52.512;13.460;2023-08-20T00:16:42;16.35;;;12.88;;
50549;SDS011;36505;52.512;13.460;2023-08-20T00:19:08;26.35;;;13.55;;
50549;SDS011;36505;52.512;13.460;2023-08-20T00:21:38;17.55;;;13.00;;
50549;SDS011;36505;52.512;13.460;2023-08-20T00:24:06;21.38;;;13.25;;
50549;SDS011;36505;52.512;13.460;2023-08-20T00:26:32;17.48;;;13.68;;
50549;SDS011;36505;52.512;13.460;2023-08-20T00:28:58;14.80;;;12.85;;
50549;SDS011;36505;52.512;13.460;2023-08-20T00:31:24;18.33;;;12.95;;
50549;SDS011;36505;52.512;13.460;2023-08-20T00:33:49;16.23;;;13.05;;
50549;SDS011;36505;52.512;13.460;2023-08-20T00:36:15;21.17;;;13.90;;
50549;SDS011;36505;52.512;13.460;2023-08-20T00:38:40;17.05;;;13.73;;
50549;SDS011;36505;52.512;13.460;2023-08-20T00:41:05;18.92;;;13.63;;
50549;SDS011;36505;52.512;13.460;2023-08-20T00:43:31;17.48;;;13.40;;
50549;SDS011;36505;52.512;13.460;2023-08-20T00:45:58;15.15;;;13.20;;
50549;SDS011;36505;52.512;13.460;2023-08-20T00:48:24;22.73;;;13.82;;
50549;SDS011;36505;52.512;13.460;2023-08-20T00:50:50;20.17;;;12.90;;
50549;SDS011;36505;52.512;13.460;2023-08-20T00:53:15;16.98;;;13.13;;
50549;SDS011;36505;52.512;13.460;2023-08-20T00:55:42;22.25;;;14.10;;
50549;SDS011;36505;52.512;13.460;2023-08-20T00:58:08;16.45;;;12.32;;
50549;SDS011;36505;52.512;13.460;2023-08-20T01:00:34;17.13;;;12.82;;
50549;SDS011;36505;52.512;13.460;2023-08-20T01:03:03;22.80;;;12.40;;
50549;SDS011;36505;52.512;13.460;2023-08-20T01:05:32;19.23;;;12.18;;
50549;SDS011;36505;52.512;13.460;2023-08-20T01:08:25;17.40;;;12.90;;
50549;SDS011;36505;52.512;13.460;2023-08-20T01:11:02;18.80;;;13.98;;
50549;SDS011;36505;52.512;13.460;2023-08-20T01:13:32;14.10;;;12.00;;
50549;SDS011;36505;52.512;13.460;2023-08-20T01:15:57;15.63;;;11.88;;
50549;SDS011;36505;52.512;13.460;2023-08-20T01:18:23;15.63;;;12.63;;
50549;SDS011;36505;52.512;13.460;2023-08-20T01:20:51;16.52;;;12.88;;
50549;SDS011;36505;52.512;13.460;2023-08-20T01:26:06;16.38;;;11.55;;
50549;SDS011;36505;52.512;13.460;2023-08-20T01:28:40;15.68;;;13.15;;
50549;SDS011;36505;52.512;13.460;2023-08-20T01:31:06;15.45;;;12.05;;
50549;SDS011;36505;52.512;13.460;2023-08-20T01:33:32;14.30;;;11.48;;
50549;SDS011;36505;52.512;13.460;2023-08-20T01:35:59;15.55;;;11.23;;
50549;SDS011;36505;52.512;13.460;2023-08-20T01:38:24;16.60;;;11.57;;
50549;SDS011;36505;52.512;13.460;2023-08-20T01:40:49;14.98;;;11.93;;
50549;SDS011;36505;52.512;13.460;2023-08-20T01:43:21;16.48;;;11.55;;
50549;SDS011;36505;52.512;13.460;2023-08-20T01:45:46;19.50;;;12.68;;
50549;SDS011;36505;52.512;13.460;2023-08-20T01:48:12;14.98;;;11.07;;
50549;SDS011;36505;52.512;13.460;2023-08-20T01:50:37;16.05;;;10.80;;
50549;SDS011;36505;52.512;13.460;2023-08-20T01:53:04;23.08;;;10.77;;
50549;SDS011;36505;52.512;13.460;2023-08-20T01:55:29;14.90;;;10.65;;
50549;SDS011;36505;52.512;13.460;2023-08-20T01:57:55;15.27;;;11.07;;
50549;SDS011;36505;52.512;13.460;2023-08-20T02:00:20;14.32;;;11.25;;
50549;SDS011;36505;52.512;13.460;2023-08-20T02:02:45;14.52;;;10.77;;
50549;SDS011;36505;52.512;13.460;2023-08-20T02:05:11;17.27;;;11.80;;
50549;SDS011;36505;52.512;13.460;2023-08-20T02:07:36;13.77;;;10.90;;
50549;SDS011;36505;52.512;13.460;2023-08-20T02:10:02;13.38;;;10.45;;
50549;SDS011;36505;52.512;13.460;2023-08-20T02:12:27;13.57;;;10.88;;
50549;SDS011;36505;52.512;13.460;2023-08-20T02:14:53;16.30;;;11.23;;
50549;SDS011;36505;52.512;13.460;2023-08-20T02:17:18;15.80;;;10.93;;
50549;SDS011;36505;52.512;13.460;2023-08-20T02:19:44;13.60;;;10.73;;
50549;SDS011;36505;52.512;13.460;2023-08-20T02:22:09;16.15;;;10.32;;
50549;SDS011;36505;52.512;13.460;2023-08-20T02:24:34;14.20;;;10.38;;
50549;SDS011;36505;52.512;13.460;2023-08-20T02:27:00;13.95;;;10.80;;
50549;SDS011;36505;52.512;13.460;2023-08-20T02:29:25;15.77;;;10.85;;
50549;SDS011;36505;52.512;13.460;2023-08-20T02:31:51;15.05;;;11.25;;
50549;SDS011;36505;52.512;13.460;2023-08-20T02:34:16;17.38;;;10.88;;
50549;SDS011;36505;52.512;13.460;2023-08-20T02:36:41;15.32;;;11.05;;
50549;SDS011;36505;52.512;13.460;2023-08-20T02:39:07;14.90;;;10.52;;
50549;SDS011;36505;52.512;13.460;2023-08-20T02:41:36;16.17;;;10.80;;
50549;SDS011;36505;52.512;13.460;2023-08-20T02:44:02;15.15;;;10.52;;
50549;SDS011;36505;52.512;13.460;2023-08-20T02:46:27;16.23;;;11.23;;
50549;SDS011;36505;52.512;13.460;2023-08-20T02:48:53;12.63;;;10.20;;
50549;SDS011;36505;52.512;13.460;2023-08-20T02:51:18;16.10;;;10.75;;
50549;SDS011;36505;52.512;13.460;2023-08-20T02:53:44;15.75;;;11.00;;
50549;SDS011;36505;52.512;13.460;2023-08-20T02:56:09;14.88;;;9.68;;
50549;SDS011;36505;52.512;13.460;2023-08-20T02:58:34;15.65;;;10.93;;
50549;SDS011;36505;52.512;13.460;2023-08-20T03:01:00;20.05;;;11.25;;
50549;SDS011;36505;52.512;13.460;2023-08-20T03:03:25;17.00;;;11.15;;
50549;SDS011;36505;52.512;13.460;2023-08-20T03:05:53;16.77;;;9.93;;
50549;SDS011;36505;52.512;13.460;2023-08-20T03:08:19;14.52;;;10.43;;
50549;SDS011;36505;52.512;13.460;2023-08-20T03:10:44;15.23;;;11.07;;
50549;SDS011;36505;52.512;13.460;2023-08-20T03:13:10;13.27;;;10.32;;
50549;SDS011;36505;52.512;13.460;2023-08-20T03:15:35;15.30;;;11.10;;
50549;SDS011;36505;52.512;13.460;2023-08-20T03:18:01;15.50;;;11.02;;
50549;SDS011;36505;52.512;13.460;2023-08-20T03:20:26;18.92;;;11.43;;
50549;SDS011;36505;52.512;13.460;2023-08-20T03:22:53;19.90;;;11.07;;
50549;SDS011;36505;52.512;13.460;2023-08-20T03:25:19;15.35;;;10.75;;
50549;SDS011;36505;52.512;13.460;2023-08-20T03:27:44;15.05;;;10.23;;
50549;SDS011;36505;52.512;13.460;2023-08-20T03:30:10;18.27;;;11.35;;
50549;SDS011;36505;52.512;13.460;2023-08-20T03:32:35;14.98;;;11.25;;
50549;SDS011;36505;52.512;13.460;2023-08-20T03:35:01;14.50;;;10.27;;
50549;SDS011;36505;52.512;13.460;2023-08-20T03:37:26;13.43;;;10.55;;
50549;SDS011;36505;52.512;13.460;2023-08-20T03:39:52;14.55;;;10.43;;
50549;SDS011;36505;52.512;13.460;2023-08-20T03:42:17;13.95;;;10.38;;
50549;SDS011;36505;52.512;13.460;2023-08-20T03:44:43;11.65;;;9.70;;
50549;SDS011;36505;52.512;13.460;2023-08-20T03:47:08;16.25;;;10.25;;
50549;SDS011;36505;52.512;13.460;2023-08-20T03:49:34;17.55;;;10.65;;
50549;SDS011;36505;52.512;13.460;2023-08-20T03:51:59;17.35;;;10.88;;
50549;SDS011;36505;52.512;13.460;2023-08-20T03:54:27;16.17;;;10.38;;
50549;SDS011;36505;52.512;13.460;2023-08-20T03:56:55;14.85;;;9.90;;
50549;SDS011;36505;52.512;13.460;2023-08-20T03:59:21;16.15;;;10.18;;
50549;SDS011;36505;52.512;13.460;2023-08-20T04:01:46;12.63;;;9.27;;
50549;SDS011;36505;52.512;13.460;2023-08-20T04:04:12;18.17;;;11.00;;
50549;SDS011;36505;52.512;13.460;2023-08-20T04:06:37;18.00;;;10.55;;
50549;SDS011;36505;52.512;13.460;2023-08-20T04:09:02;13.88;;;10.00;;
50549;SDS011;36505;52.512;13.460;2023-08-20T04:11:28;15.32;;;10.30;;
50549;SDS011;36505;52.512;13.460;2023-08-20T04:13:54;15.50;;;10.50;;
50549;SDS011;36505;52.512;13.460;2023-08-20T04:16:19;13.65;;;9.85;;
50549;SDS011;36505;52.512;13.460;2023-08-20T04:18:45;16.48;;;10.40;;
50549;SDS011;36505;52.512;13.460;2023-08-20T04:21:10;15.45;;;10.45;;
50549;SDS011;36505;52.512;13.460;2023-08-20T04:23:36;15.93;;;10.50;;
50549;SDS011;36505;52.512;13.460;2023-08-20T04:26:07;13.30;;;9.95;;
50549;SDS011;36505;52.512;13.460;2023-08-20T04:28:33;15.32;;;10.98;;
50549;SDS011;36505;52.512;13.460;2023-08-20T04:30:58;15.35;;;10.55;;
50549;SDS011;36505;52.512;13.460;2023-08-20T04:33:25;20.20;;;11.45;;
50549;SDS011;36505;52.512;13.460;2023-08-20T04:35:50;18.48;;;11.48;;
50549;SDS011;36505;52.512;13.460;2023-08-20T04:38:16;12.77;;;9.98;;
50549;SDS011;36505;52.512;13.460;2023-08-20T04:40:41;19.55;;;10.77;;
50549;SDS011;36505;52.512;13.460;2023-08-20T04:43:07;13.63;;;10.45;;
50549;SDS011;36505;52.512;13.460;2023-08-20T04:45:32;15.23;;;10.90;;
50549;SDS011;36505;52.512;13.460;2023-08-20T04:47:57;13.25;;;10.65;;
50549;SDS011;36505;52.512;13.460;2023-08-20T04:50:24;13.15;;;10.18;;
50549;SDS011;36505;52.512;13.460;2023-08-20T04:52:49;14.27;;;9.88;;
50549;SDS011;36505;52.512;13.460;2023-08-20T04:55:14;15.45;;;10.45;;
50549;SDS011;36505;52.512;13.460;2023-08-20T04:57:40;17.75;;;10.50;;
50549;SDS011;36505;52.512;13.460;2023-08-20T05:00:06;13.77;;;11.05;;
50549;SDS011;36505;52.512;13.460;2023-08-20T05:02:32;16.20;;;11.57;;
50549;SDS011;36505;52.512;13.460;2023-08-20T05:04:58;14.45;;;10.15;;
50549;SDS011;36505;52.512;13.460;2023-08-20T05:07:23;20.85;;;11.35;;
50549;SDS011;36505;52.512;13.460;2023-08-20T05:09:49;17.05;;;11.25;;
50549;SDS011;36505;52.512;13.460;2023-08-20T05:12:15;18.35;;;10.18;;
50549;SDS011;36505;52.512;13.460;2023-08-20T05:14:40;19.17;;;10.68;;
50549;SDS011;36505;52.512;13.460;2023-08-20T05:17:06;14.15;;;10.10;;
50549;SDS011;36505;52.512;13.460;2023-08-20T05:19:31;14.15;;;10.85;;
50549;SDS011;36505;52.512;13.460;2023-08-20T05:21:56;17.85;;;10.93;;
50549;SDS011;36505;52.512;13.460;2023-08-20T05:24:24;18.15;;;11.48;;
50549;SDS011;36505;52.512;13.460;2023-08-20T05:27:03;15.68;;;10.68;;
50549;SDS011;36505;52.512;13.460;2023-08-20T05:32:07;16.30;;;10.68;;
50549;SDS011;36505;52.512;13.460;2023-08-20T05:34:33;17.80;;;11.23;;
50549;SDS011;36505;52.512;13.460;2023-08-20T05:36:59;15.30;;;11.25;;
50549;SDS011;36505;52.512;13.460;2023-08-20T05:39:25;16.27;;;11.05;;
50549;SDS011;36505;52.512;13.460;2023-08-20T05:41:51;17.17;;;10.02;;
50549;SDS011;36505;52.512;13.460;2023-08-20T05:44:17;15.75;;;11.10;;
50549;SDS011;36505;52.512;13.460;2023-08-20T05:46:43;17.90;;;10.88;;
50549;SDS011;36505;52.512;13.460;2023-08-20T05:49:08;16.77;;;11.32;;
50549;SDS011;36505;52.512;13.460;2023-08-20T05:51:34;18.08;;;10.65;;
50549;SDS011;36505;52.512;13.460;2023-08-20T05:53:59;18.13;;;11.82;;
50549;SDS011;36505;52.512;13.460;2023-08-20T05:56:24;13.70;;;9.82;;
50549;SDS011;36505;52.512;13.460;2023-08-20T05:58:50;15.07;;;10.55;;
50549;SDS011;36505;52.512;13.460;2023-08-20T06:01:15;14.15;;;10.38;;
50549;SDS011;36505;52.512;13.460;2023-08-20T06:03:40;20.65;;;10.85;;
50549;SDS011;36505;52.512;13.460;2023-08-20T06:06:06;19.70;;;11.13;;
50549;SDS011;36505;52.512;13.460;2023-08-20T06:08:31;14.57;;;10.25;;
50549;SDS011;36505;52.512;13.460;2023-08-20T06:10:56;21.77;;;15.77;;
50549;SDS011;36505;52.512;13.460;2023-08-20T06:13:22;16.63;;;10.82;;
50549;SDS011;36505;52.512;13.460;2023-08-20T06:15:47;16.35;;;10.73;;
50549;SDS011;36505;52.512;13.460;2023-08-20T06:18:12;11.40;;;9.43;;
50549;SDS011;36505;52.512;13.460;2023-08-20T06:20:38;14.52;;;10.63;;
50549;SDS011;36505;52.512;13.460;2023-08-20T06:23:03;14.93;;;10.00;;
50549;SDS011;36505;52.512;13.460;2023-08-20T06:25:28;12.25;;;9.63;;
50549;SDS011;36505;52.512;13.460;2023-08-20T06:27:54;14.38;;;9.35;;
50549;SDS011;36505;52.512;13.460;2023-08-20T06:30:19;13.90;;;9.60;;
50549;SDS011;36505;52.512;13.460;2023-08-20T06:32:45;19.98;;;9.82;;
50549;SDS011;36505;52.512;13.460;2023-08-20T06:35:10;14.68;;;9.18;;
50549;SDS011;36505;52.512;13.460;2023-08-20T06:37:36;14.73;;;9.85;;
50549;SDS011;36505;52.512;13.460;2023-08-20T06:40:03;13.18;;;9.57;;
50549;SDS011;36505;52.512;13.460;2023-08-20T06:42:29;16.17;;;9.85;;
50549;SDS011;36505;52.512;13.460;2023-08-20T06:44:54;14.80;;;10.10;;
50549;SDS011;36505;52.512;13.460;2023-08-20T06:47:20;16.92;;;10.02;;
50549;SDS011;36505;52.512;13.460;2023-08-20T06:49:45;16.48;;;9.98;;
50549;SDS011;36505;52.512;13.460;2023-08-20T06:52:11;12.77;;;8.90;;
50549;SDS011;36505;52.512;13.460;2023-08-20T06:54:36;13.13;;;9.52;;
50549;SDS011;36505;52.512;13.460;2023-08-20T06:57:01;13.60;;;10.23;;
50549;SDS011;36505;52.512;13.460;2023-08-20T06:59:27;12.57;;;10.05;;
50549;SDS011;36505;52.512;13.460;2023-08-20T07:01:52;20.98;;;10.50;;
50549;SDS011;36505;52.512;13.460;2023-08-20T07:04:18;12.90;;;9.85;;
50549;SDS011;36505;52.512;13.460;2023-08-20T07:06:43;15.45;;;10.57;;
50549;SDS011;36505;52.512;13.460;2023-08-20T07:09:09;15.32;;;10.25;;
50549;SDS011;36505;52.512;13.460;2023-08-20T07:11:34;16.77;;;9.43;;
50549;SDS011;36505;52.512;13.460;2023-08-20T07:13:59;16.58;;;9.88;;
50549;SDS011;36505;52.512;13.460;2023-08-20T07:16:25;14.82;;;10.55;;
50549;SDS011;36505;52.512;13.460;2023-08-20T07:18:50;14.25;;;10.25;;
50549;SDS011;36505;52.512;13.460;2023-08-20T07:21:15;14.05;;;10.05;;
50549;SDS011;36505;52.512;13.460;2023-08-20T07:23:41;14.45;;;10.45;;
50549;SDS011;36505;52.512;13.460;2023-08-20T07:26:07;13.30;;;9.07;;
50549;SDS011;36505;52.512;13.460;2023-08-20T07:28:34;17.52;;;10.55;;
50549;SDS011;36505;52.512;13.460;2023-08-20T07:31:19;14.95;;;10.43;;
50549;SDS011;36505;52.512;13.460;2023-08-20T07:33:45;15.98;;;10.82;;
50549;SDS011;36505;52.512;13.460;2023-08-20T07:36:12;15.32;;;9.95;;
50549;SDS011;36505;52.512;13.460;2023-08-20T07:38:37;17.98;;;10.10;;
50549;SDS011;36505;52.512;13.460;2023-08-20T07:41:06;20.13;;;10.43;;
50549;SDS011;36505;52.512;13.460;2023-08-20T07:43:31;14.55;;;10.27;;
50549;SDS011;36505;52.512;13.460;2023-08-20T07:45:57;13.38;;;10.27;;
50549;SDS011;36505;52.512;13.460;2023-08-20T07:48:22;14.63;;;9.73;;
50549;SDS011;36505;52.512;13.460;2023-08-20T07:50:48;11.27;;;9.13;;
50549;SDS011;36505;52.512;13.460;2023-08-20T07:53:13;12.73;;;8.50;;
50549;SDS011;36505;52.512;13.460;2023-08-20T07:55:38;14.35;;;9.60;;
50549;SDS011;36505;52.512;13.460;2023-08-20T07:58:04;18.52;;;10.20;;
50549;SDS011;36505;52.512;13.460;2023-08-20T08:00:30;11.90;;;9.05;;
50549;SDS011;36505;52.512;13.460;2023-08-20T08:02:55;11.57;;;9.65;;
50549;SDS011;36505;52.512;13.460;2023-08-20T08:05:20;16.00;;;9.95;;
50549;SDS011;36505;52.512;13.460;2023-08-20T08:07:46;16.45;;;10.45;;
50549;SDS011;36505;52.512;13.460;2023-08-20T08:10:11;20.05;;;9.65;;
50549;SDS011;36505;52.512;13.460;2023-08-20T08:12:36;13.73;;;8.95;;
50549;SDS011;36505;52.512;13.460;2023-08-20T08:15:02;11.00;;;8.75;;
50549;SDS011;36505;52.512;13.460;2023-08-20T08:17:27;16.58;;;9.95;;
50549;SDS011;36505;52.512;13.460;2023-08-20T08:19:53;14.52;;;9.05;;
50549;SDS011;36505;52.512;13.460;2023-08-20T08:22:20;13.80;;;9.20;;
50549;SDS011;36505;52.512;13.460;2023-08-20T08:24:45;15.95;;;9.50;;
50549;SDS011;36505;52.512;13.460;2023-08-20T08:27:11;11.27;;;8.25;;
50549;SDS011;36505;52.512;13.460;2023-08-20T08:29:36;12.43;;;8.05;;
50549;SDS011;36505;52.512;13.460;2023-08-20T08:32:02;13.43;;;7.82;;
50549;SDS011;36505;52.512;13.460;2023-08-20T08:34:27;11.38;;;8.57;;
50549;SDS011;36505;52.512;13.460;2023-08-20T08:36:52;10.73;;;7.05;;
50549;SDS011;36505;52.512;13.460;2023-08-20T08:39:18;12.35;;;8.32;;
50549;SDS011;36505;52.512;13.460;2023-08-20T08:41:43;12.73;;;7.82;;
50549;SDS011;36505;52.512;13.460;2023-08-20T08:44:14;11.57;;;8.20;;
50549;SDS011;36505;52.512;13.460;2023-08-20T08:46:39;11.32;;;7.72;;
50549;SDS011;36505;52.512;13.460;2023-08-20T08:49:05;11.75;;;7.32;;
50549;SDS011;36505;52.512;13.460;2023-08-20T08:51:31;10.63;;;7.10;;
50549;SDS011;36505;52.512;13.460;2023-08-20T08:53:58;9.48;;;6.72;;
50549;SDS011;36505;52.512;13.460;2023-08-20T08:56:24;10.95;;;6.18;;
50549;SDS011;36505;52.512;13.460;2023-08-20T08:58:49;10.30;;;6.57;;
50549;SDS011;36505;52.512;13.460;2023-08-20T09:01:14;9.75;;;6.68;;
50549;SDS011;36505;52.512;13.460;2023-08-20T09:03:40;7.78;;;5.93;;
50549;SDS011;36505;52.512;13.460;2023-08-20T09:06:09;6.60;;;5.57;;
50549;SDS011;36505;52.512;13.460;2023-08-20T09:08:35;8.88;;;5.85;;
50549;SDS011;36505;52.512;13.460;2023-08-20T09:11:00;7.68;;;5.55;;
50549;SDS011;36505;52.512;13.460;2023-08-20T09:16:03;8.73;;;5.32;;
50549;SDS011;36505;52.512;13.460;2023-08-20T09:18:33;7.40;;;5.57;;
50549;SDS011;36505;52.512;13.460;2023-08-20T09:21:05;7.30;;;5.13;;
50549;SDS011;36505;52.512;13.460;2023-08-20T09:23:34;6.50;;;4.90;;
50549;SDS011;36505;52.512;13.460;2023-08-20T09:26:01;7.38;;;5.35;;
50549;SDS011;36505;52.512;13.460;2023-08-20T09:28:27;7.28;;;5.15;;
50549;SDS011;36505;52.512;13.460;2023-08-20T09:30:59;6.75;;;5.50;;
50549;SDS011;36505;52.512;13.460;2023-08-20T09:33:26;8.55;;;4.50;;
50549;SDS011;36505;52.512;13.460;2023-08-20T09:35:53;7.40;;;4.32;;
50549;SDS011;36505;52.512;13.460;2023-08-20T09:38:20;8.35;;;4.93;;
50549;SDS011;36505;52.512;13.460;2023-08-20T09:40:48;9.63;;;4.65;;
50549;SDS011;36505;52.512;13.460;2023-08-20T09:43:16;7.20;;;5.53;;
50549;SDS011;36505;52.512;13.460;2023-08-20T09:45:42;5.97;;;4.55;;
50549;SDS011;36505;52.512;13.460;2023-08-20T09:48:09;10.82;;;5.60;;
50549;SDS011;36505;52.512;13.460;2023-08-20T09:50:35;9.32;;;5.00;;
50549;SDS011;36505;52.512;13.460;2023-08-20T09:53:11;8.50;;;4.75;;
50549;SDS011;36505;52.512;13.460;2023-08-20T09:55:42;7.47;;;4.28;;
50549;SDS011;36505;52.512;13.460;2023-08-20T09:58:10;8.20;;;4.63;;
50549;SDS011;36505;52.512;13.460;2023-08-20T10:00:35;7.55;;;4.38;;
50549;SDS011;36505;52.512;13.460;2023-08-20T10:03:01;6.65;;;4.55;;
50549;SDS011;36505;52.512;13.460;2023-08-20T10:05:27;6.88;;;4.03;;
50549;SDS011;36505;52.512;13.460;2023-08-20T10:07:54;4.70;;;4.20;;
50549;SDS011;36505;52.512;13.460;2023-08-20T10:10:20;4.78;;;4.05;;
50549;SDS011;36505;52.512;13.460;2023-08-20T10:12:46;6.20;;;3.47;;
50549;SDS011;36505;52.512;13.460;2023-08-20T10:15:13;8.60;;;4.63;;
50549;SDS011;36505;52.512;13.460;2023-08-20T10:17:40;6.88;;;4.10;;
50549;SDS011;36505;52.512;13.460;2023-08-20T10:20:07;6.50;;;4.32;;
50549;SDS011;36505;52.512;13.460;2023-08-20T10:22:36;5.82;;;3.83;;
50549;SDS011;36505;52.512;13.460;2023-08-20T10:25:04;8.55;;;4.38;;
50549;SDS011;36505;52.512;13.460;2023-08-20T10:27:35;4.97;;;3.50;;
50549;SDS011;36505;52.512;13.460;2023-08-20T10:30:09;6.28;;;3.95;;
50549;SDS011;36505;52.512;13.460;2023-08-20T10:32:47;4.75;;;3.35;;
50549;SDS011;36505;52.512;13.460;2023-08-20T10:35:17;5.35;;;3.17;;
50549;SDS011;36505;52.512;13.460;2023-08-20T10:40:51;5.78;;;3.08;;
50549;SDS011;36505;52.512;13.460;2023-08-20T10:46:07;7.65;;;3.33;;
50549;SDS011;36505;52.512;13.460;2023-08-20T10:48:33;3.70;;;2.25;;
50549;SDS011;36505;52.512;13.460;2023-08-20T10:51:07;5.22;;;3.28;;
50549;SDS011;36505;52.512;13.460;2023-08-20T10:53:33;4.95;;;2.63;;
50549;SDS011;36505;52.512;13.460;2023-08-20T10:56:11;5.38;;;3.10;;
50549;SDS011;36505;52.512;13.460;2023-08-20T10:58:41;8.02;;;3.33;;
50549;SDS011;36505;52.512;13.460;2023-08-20T11:03:47;4.70;;;2.50;;
50549;SDS011;36505;52.512;13.460;2023-08-20T11:06:14;3.78;;;2.63;;
50549;SDS011;36505;52.512;13.460;2023-08-20T11:08:40;4.22;;;2.83;;
50549;SDS011;36505;52.512;13.460;2023-08-20T11:11:06;2.80;;;2.15;;
50549;SDS011;36505;52.512;13.460;2023-08-20T11:13:33;6.72;;;2.40;;
50549;SDS011;36505;52.512;13.460;2023-08-20T11:15:59;8.43;;;2.72;;
50549;SDS011;36505;52.512;13.460;2023-08-20T11:18:26;4.55;;;2.28;;
50549;SDS011;36505;52.512;13.460;2023-08-20T11:20:51;4.03;;;2.25;;
50549;SDS011;36505;52.512;13.460;2023-08-20T11:23:18;5.38;;;2.30;;
50549;SDS011;36505;52.512;13.460;2023-08-20T11:25:44;3.35;;;2.20;;
50549;SDS011;36505;52.512;13.460;2023-08-20T11:28:09;4.55;;;2.22;;
50549;SDS011;36505;52.512;13.460;2023-08-20T11:30:34;3.67;;;1.90;;
50549;SDS011;36505;52.512;13.460;2023-08-20T11:33:00;3.60;;;1.92;;
50549;SDS011;36505;52.512;13.460;2023-08-20T11:35:25;3.50;;;2.00;;
50549;SDS011;36505;52.512;13.460;2023-08-20T11:37:54;4.22;;;1.95;;
50549;SDS011;36505;52.512;13.460;2023-08-20T11:40:21;5.20;;;1.83;;
50549;SDS011;36505;52.512;13.460;2023-08-20T11:42:47;3.20;;;2.17;;
50549;SDS011;36505;52.512;13.460;2023-08-20T11:45:13;4.40;;;1.98;;
50549;SDS011;36505;52.512;13.460;2023-08-20T11:47:39;3.45;;;2.05;;
50549;SDS011;36505;52.512;13.460;2023-08-20T11:50:05;6.70;;;1.98;;
50549;SDS011;36505;52.512;13.460;2023-08-20T11:52:32;3.25;;;2.10;;
50549;SDS011;36505;52.512;13.460;2023-08-20T11:54:58;4.25;;;2.22;;
50549;SDS011;36505;52.512;13.460;2023-08-20T11:57:25;4.50;;;2.30;;
50549;SDS011;36505;52.512;13.460;2023-08-20T11:59:50;3.75;;;2.55;;
50549;SDS011;36505;52.512;13.460;2023-08-20T12:02:24;3.58;;;2.33;;
50549;SDS011;36505;52.512;13.460;2023-08-20T12:04:50;5.05;;;2.55;;
50549;SDS011;36505;52.512;13.460;2023-08-20T12:07:15;4.82;;;1.80;;
50549;SDS011;36505;52.512;13.460;2023-08-20T12:09:41;3.45;;;1.88;;
50549;SDS011;36505;52.512;13.460;2023-08-20T12:12:07;4.32;;;1.80;;
50549;SDS011;36505;52.512;13.460;2023-08-20T12:14:34;5.68;;;2.58;;
50549;SDS011;36505;52.512;13.460;2023-08-20T12:17:00;8.70;;;2.22;;
50549;SDS011;36505;52.512;13.460;2023-08-20T12:19:25;2.88;;;1.98;;
50549;SDS011;36505;52.512;13.460;2023-08-20T12:21:51;5.35;;;1.95;;
50549;SDS011;36505;52.512;13.460;2023-08-20T12:24:16;2.25;;;1.50;;
50549;SDS011;36505;52.512;13.460;2023-08-20T12:26:44;8.30;;;2.13;;
50549;SDS011;36505;52.512;13.460;2023-08-20T12:29:10;4.88;;;2.13;;
50549;SDS011;36505;52.512;13.460;2023-08-20T12:31:35;4.95;;;2.53;;
50549;SDS011;36505;52.512;13.460;2023-08-20T12:34:01;2.88;;;1.80;;
50549;SDS011;36505;52.512;13.460;2023-08-20T12:36:27;3.75;;;2.55;;
50549;SDS011;36505;52.512;13.460;2023-08-20T12:38:54;4.30;;;2.17;;
50549;SDS011;36505;52.512;13.460;2023-08-20T12:41:20;3.15;;;1.70;;
50549;SDS011;36505;52.512;13.460;2023-08-20T12:43:45;4.72;;;1.92;;
50549;SDS011;36505;52.512;13.460;2023-08-20T12:46:11;3.60;;;1.70;;
50549;SDS011;36505;52.512;13.460;2023-08-20T12:48:37;4.38;;;1.80;;
50549;SDS011;36505;52.512;13.460;2023-08-20T12:51:03;4.07;;;2.35;;
50549;SDS011;36505;52.512;13.460;2023-08-20T12:53:28;8.70;;;2.30;;
50549;SDS011;36505;52.512;13.460;2023-08-20T12:55:54;3.08;;;1.70;;
50549;SDS011;36505;52.512;13.460;2023-08-20T12:58:22;4.82;;;1.77;;
50549;SDS011;36505;52.512;13.460;2023-08-20T13:00:48;3.40;;;2.35;;
50549;SDS011;36505;52.512;13.460;2023-08-20T13:03:14;5.68;;;1.80;;
50549;SDS011;36505;52.512;13.460;2023-08-20T13:05:40;3.72;;;1.85;;
50549;SDS011;36505;52.512;13.460;2023-08-20T13:08:06;4.47;;;1.77;;
50549;SDS011;36505;52.512;13.460;2023-08-20T13:10:32;3.80;;;1.73;;
50549;SDS011;36505;52.512;13.460;2023-08-20T13:13:00;3.58;;;2.00;;
50549;SDS011;36505;52.512;13.460;2023-08-20T13:15:29;13.48;;;2.30;;
50549;SDS011;36505;52.512;13.460;2023-08-20T13:17:55;4.05;;;1.73;;
50549;SDS011;36505;52.512;13.460;2023-08-20T13:20:21;3.15;;;1.80;;
50549;SDS011;36505;52.512;13.460;2023-08-20T13:22:48;3.88;;;1.90;;
50549;SDS011;36505;52.512;13.460;2023-08-20T13:25:14;3.53;;;1.58;;
50549;SDS011;36505;52.512;13.460;2023-08-20T13:27:40;4.88;;;1.95;;
50549;SDS011;36505;52.512;13.460;2023-08-20T13:30:06;2.22;;;1.63;;
50549;SDS011;36505;52.512;13.460;2023-08-20T13:32:34;3.50;;;1.95;;
50549;SDS011;36505;52.512;13.460;2023-08-20T13:34:59;8.18;;;2.15;;
50549;SDS011;36505;52.512;13.460;2023-08-20T13:37:25;4.47;;;1.30;;
50549;SDS011;36505;52.512;13.460;2023-08-20T13:39:50;5.35;;;1.80;;
50549;SDS011;36505;52.512;13.460;2023-08-20T13:42:16;5.88;;;2.67;;
50549;SDS011;36505;52.512;13.460;2023-08-20T13:44:41;4.47;;;1.65;;
50549;SDS011;36505;52.512;13.460;2023-08-20T13:47:06;4.07;;;2.10;;
50549;SDS011;36505;52.512;13.460;2023-08-20T13:49:32;3.08;;;1.50;;
50549;SDS011;36505;52.512;13.460;2023-08-20T13:51:57;3.20;;;1.75;;
50549;SDS011;36505;52.512;13.460;2023-08-20T13:54:22;3.92;;;1.35;;
50549;SDS011;36505;52.512;13.460;2023-08-20T13:56:48;3.10;;;1.45;;
50549;SDS011;36505;52.512;13.460;2023-08-20T13:59:13;3.22;;;1.30;;
50549;SDS011;36505;52.512;13.460;2023-08-20T14:01:39;4.10;;;1.52;;
50549;SDS011;36505;52.512;13.460;2023-08-20T14:04:04;3.88;;;1.15;;
50549;SDS011;36505;52.512;13.460;2023-08-20T14:06:30;3.25;;;1.40;;
50549;SDS011;36505;52.512;13.460;2023-08-20T14:08:58;2.65;;;1.27;;
50549;SDS011;36505;52.512;13.460;2023-08-20T14:14:13;10.10;;;1.90;;
50549;SDS011;36505;52.512;13.460;2023-08-20T14:16:39;6.95;;;1.98;;
50549;SDS011;36505;52.512;13.460;2023-08-20T14:19:05;8.70;;;2.00;;
50549;SDS011;36505;52.512;13.460;2023-08-20T14:21:30;5.20;;;1.70;;
50549;SDS011;36505;52.512;13.460;2023-08-20T14:23:56;4.53;;;1.60;;
50549;SDS011;36505;52.512;13.460;2023-08-20T14:29:43;2.33;;;1.38;;
50549;SDS011;36505;52.512;13.460;2023-08-20T14:32:12;3.17;;;1.30;;
50549;SDS011;36505;52.512;13.460;2023-08-20T14:34:38;2.22;;;1.38;;
50549;SDS011;36505;52.512;13.460;2023-08-20T14:37:03;2.63;;;1.20;;
50549;SDS011;36505;52.512;13.460;2023-08-20T14:39:28;2.70;;;1.13;;